Time;durP1;ratioP1;P1;durP2;ratioP2;P2;SDS_P1;SDS_P2;PMS_P1;PMS_P2;Temp;Humidity;BMP_temperature;BMP_pressure;BME280_temperature;BME280_humidity;BME280_pressure;Samples;Min_cycle;Max_cycle;Signal;HPM_P1;HPM_P2
2021/04/26 00:00:17;;;;;;;2.63;1.40;;;8.80;48.80;;;;;;5030221;28;20253;-82
2021/04/26 00:02:43;;;;;;;2.67;1.30;;;8.70;48.90;;;;;;5023896;28;20181;-81
2021/04/26 00:05:11;;;;;;;5.03;2.00;;;8.70;49.00;;;;;;5013514;28;20169;-82
2021/04/26 00:07:37;;;;;;;4.93;1.88;;;8.70;49.10;;;;;;5031454;28;20763;-82
2021/04/26 00:10:04;;;;;;;7.05;1.83;;;8.70;49.20;;;;;;5005876;28;20765;-82
2021/04/26 00:12:29;;;;;;;3.78;2.20;;;8.70;49.30;;;;;;5024947;28;20254;-82
2021/04/26 00:14:55;;;;;;;3.00;2.43;;;8.70;49.30;;;;;;5033416;28;20173;-81
2021/04/26 00:17:21;;;;;;;4.18;1.65;;;8.70;49.30;;;;;;5031723;28;20185;-81
2021/04/26 00:19:47;;;;;;;1.90;1.33;;;8.70;49.30;;;;;;5014170;28;20188;-81
2021/04/26 00:22:13;;;;;;;4.90;1.80;;;8.70;49.20;;;;;;5030822;28;20170;-81
2021/04/26 00:24:39;;;;;;;4.33;1.60;;;8.70;49.30;;;;;;5030683;28;20176;-80
2021/04/26 00:27:06;;;;;;;2.55;2.20;;;8.70;49.30;;;;;;5031575;28;20530;-81
2021/04/26 00:29:32;;;;;;;3.17;1.92;;;8.70;49.30;;;;;;5030523;28;20190;-80
2021/04/26 00:31:58;;;;;;;3.63;1.75;;;8.70;49.50;;;;;;5030570;28;20252;-80
2021/04/26 00:34:23;;;;;;;3.83;1.50;;;8.60;49.60;;;;;;5014120;28;20281;-81
2021/04/26 00:36:52;;;;;;;2.23;2.03;;;8.60;49.70;;;;;;5031659;28;20564;-82
2021/04/26 00:39:18;;;;;;;5.45;1.92;;;8.60;49.80;;;;;;5031815;28;20186;-81
2021/04/26 00:41:44;;;;;;;5.43;3.07;;;8.60;49.80;;;;;;5030616;28;20224;-82
2021/04/26 00:44:09;;;;;;;2.77;1.60;;;8.60;49.90;;;;;;5030841;28;20564;-81
2021/04/26 00:46:38;;;;;;;4.17;1.63;;;8.60;49.90;;;;;;5030702;28;20569;-81
2021/04/26 00:49:03;;;;;;;2.70;1.70;;;8.50;49.80;;;;;;4997920;28;20667;-82
2021/04/26 00:51:29;;;;;;;2.97;1.50;;;8.50;49.70;;;;;;5019047;28;20169;-81
2021/04/26 00:53:55;;;;;;;5.72;1.55;;;8.50;49.80;;;;;;5051399;28;20153;-82
2021/04/26 00:56:21;;;;;;;1.87;1.40;;;8.40;49.90;;;;;;5036994;28;20261;-81
2021/04/26 00:58:48;;;;;;;2.45;1.52;;;8.40;49.90;;;;;;5053482;28;20643;-82
2021/04/26 01:01:17;;;;;;;2.60;1.50;;;8.40;50.00;;;;;;5053651;28;20209;-82
2021/04/26 01:03:44;;;;;;;5.05;1.63;;;8.30;50.10;;;;;;5070054;28;20170;-82
2021/04/26 01:06:11;;;;;;;4.53;1.80;;;8.30;50.00;;;;;;5054615;28;20181;-81
2021/04/26 01:08:38;;;;;;;2.58;1.73;;;8.20;50.00;;;;;;5037167;28;20194;-82
2021/04/26 01:11:25;;;;;;;3.30;1.90;;;8.20;50.10;;;;;;5047995;28;20626;-81
2021/04/26 01:14:40;;;;;;;1.98;1.20;;;8.10;50.20;;;;;;5050976;28;20190;-82
2021/04/26 01:17:16;;;;;;;2.90;1.30;;;8.10;50.40;;;;;;4953827;28;20168;-80
2021/04/26 01:19:58;;;;;;;3.10;1.80;;;8.10;50.20;;;;;;4925842;29;20191;-81
2021/04/26 01:23:11;;;;;;;3.33;1.40;;;8.00;50.40;;;;;;4987429;28;20177;-81
2021/04/26 01:25:41;;;;;;;4.78;1.75;;;7.90;50.70;;;;;;5053207;28;20263;-81
2021/04/26 01:28:40;;;;;;;5.45;1.75;;;7.90;50.40;;;;;;5005995;28;20194;-81
2021/04/26 01:31:16;;;;;;;2.90;1.67;;;7.90;51.10;;;;;;5034879;28;20181;-82
2021/04/26 01:33:48;;;;;;;3.40;1.70;;;7.80;50.80;;;;;;5051189;28;20176;-82
2021/04/26 01:36:19;;;;;;;3.40;1.70;;;7.80;50.80;;;;;;5034110;28;20192;-82
2021/04/26 01:38:51;;;;;;;5.25;1.95;;;7.70;50.90;;;;;;5034095;28;20189;-82
2021/04/26 01:41:20;;;;;;;2.83;1.88;;;7.70;51.00;;;;;;5033817;28;20177;-82
2021/04/26 01:43:47;;;;;;;3.42;1.95;;;7.70;51.10;;;;;;5033892;28;20204;-82
2021/04/26 01:46:13;;;;;;;3.05;2.40;;;7.60;51.20;;;;;;5033601;28;20260;-82
2021/04/26 01:48:44;;;;;;;6.50;2.70;;;7.60;51.30;;;;;;5033258;28;20201;-82
2021/04/26 01:51:11;;;;;;;5.45;2.00;;;7.60;51.50;;;;;;5033703;28;20174;-81
2021/04/26 01:53:43;;;;;;;4.55;1.98;;;7.50;51.70;;;;;;5033606;28;20191;-80
2021/04/26 01:56:11;;;;;;;3.63;2.10;;;7.50;52.10;;;;;;5033276;28;20174;-82
2021/04/26 01:58:53;;;;;;;6.75;2.45;;;7.50;52.10;;;;;;5002394;28;20219;-81
2021/04/26 02:01:22;;;;;;;2.33;1.75;;;7.50;52.10;;;;;;5033249;28;20180;-81
2021/04/26 02:03:56;;;;;;;3.25;1.40;;;7.50;51.90;;;;;;5017184;28;20260;-82
2021/04/26 02:06:40;;;;;;;2.80;1.45;;;7.40;52.00;;;;;;5035821;28;20170;-82
2021/04/26 02:09:20;;;;;;;5.60;1.55;;;7.40;51.90;;;;;;5016535;28;20688;-83
2021/04/26 02:11:52;;;;;;;4.35;1.80;;;7.40;52.10;;;;;;5033077;28;20244;-83
2021/04/26 02:14:24;;;;;;;3.33;1.95;;;7.40;52.20;;;;;;5033346;28;20170;-83
2021/04/26 02:16:50;;;;;;;3.40;1.92;;;7.30;52.10;;;;;;5033256;28;20246;-82
2021/04/26 02:19:16;;;;;;;6.30;2.28;;;7.30;52.20;;;;;;5040155;28;20186;-81
2021/04/26 02:21:42;;;;;;;3.57;1.30;;;7.20;52.20;;;;;;5016728;28;20189;-82
2021/04/26 02:24:09;;;;;;;3.30;1.73;;;7.20;52.30;;;;;;5033208;28;20571;-81
2021/04/26 02:26:35;;;;;;;3.38;1.80;;;7.10;52.40;;;;;;5032625;28;20621;-82
2021/04/26 02:29:05;;;;;;;3.45;1.55;;;7.10;52.60;;;;;;5032373;28;20219;-82
2021/04/26 02:31:35;;;;;;;3.13;2.15;;;7.10;52.90;;;;;;5016389;28;20249;-82
2021/04/26 02:34:24;;;;;;;5.68;1.83;;;7.10;53.20;;;;;;5032631;28;20181;-83
2021/04/26 02:36:59;;;;;;;2.15;1.75;;;7.10;53.90;;;;;;5033667;28;20638;-82
2021/04/26 02:39:27;;;;;;;2.92;2.05;;;7.10;53.50;;;;;;5049010;28;20194;-83
2021/04/26 02:41:53;;;;;;;3.42;2.20;;;7.10;53.50;;;;;;5034501;28;20185;-82
2021/04/26 02:44:26;;;;;;;2.38;1.58;;;7.10;53.60;;;;;;5035689;28;20641;-82
2021/04/26 02:47:04;;;;;;;4.40;2.30;;;7.10;54.10;;;;;;5032264;28;20181;-82
2021/04/26 02:49:32;;;;;;;4.10;2.20;;;7.00;54.20;;;;;;4999452;28;20294;-81
2021/04/26 02:52:00;;;;;;;2.30;1.77;;;7.00;53.80;;;;;;5015845;28;20533;-82
2021/04/26 02:54:28;;;;;;;3.65;1.83;;;7.00;53.90;;;;;;5015947;28;20170;-82
2021/04/26 02:56:57;;;;;;;3.08;1.65;;;7.00;53.90;;;;;;5031812;28;20170;-82
2021/04/26 02:59:26;;;;;;;3.70;2.38;;;6.90;54.10;;;;;;5015788;28;20208;-81
2021/04/26 03:01:55;;;;;;;4.47;2.45;;;6.90;54.00;;;;;;5018803;28;20182;-81
2021/04/26 03:04:44;;;;;;;2.50;1.75;;;6.90;54.30;;;;;;5023958;28;20268;-81
2021/04/26 03:07:12;;;;;;;2.60;1.80;;;6.80;54.10;;;;;;5014933;28;20226;-82
2021/04/26 03:09:50;;;;;;;3.42;2.40;;;6.80;54.40;;;;;;5015326;28;20869;-81
2021/04/26 03:12:17;;;;;;;4.97;2.45;;;6.70;54.50;;;;;;5048151;28;20289;-81
2021/04/26 03:14:44;;;;;;;4.82;1.98;;;6.70;54.50;;;;;;5033044;28;20173;-81
2021/04/26 03:17:12;;;;;;;6.95;3.55;;;6.70;54.80;;;;;;5031473;28;20579;-81
2021/04/26 03:19:46;;;;;;;5.05;2.30;;;6.60;55.00;;;;;;5036685;28;20268;-80
2021/04/26 03:22:14;;;;;;;2.90;2.63;;;6.60;55.00;;;;;;5031873;28;20180;-80
2021/04/26 03:24:42;;;;;;;2.85;1.80;;;6.60;55.40;;;;;;5032276;28;20185;-82
2021/04/26 03:27:11;;;;;;;4.15;2.40;;;6.50;55.30;;;;;;5022829;28;20177;-81
2021/04/26 03:29:49;;;;;;;3.20;1.83;;;6.60;55.40;;;;;;5035521;28;20288;-82
2021/04/26 03:32:22;;;;;;;2.33;1.90;;;6.50;55.80;;;;;;5015412;28;20199;-82
2021/04/26 03:35:01;;;;;;;2.30;2.10;;;6.50;55.90;;;;;;5031478;28;20222;-82
2021/04/26 03:37:33;;;;;;;4.28;2.25;;;6.50;55.80;;;;;;5047541;28;20589;-81
2021/04/26 03:40:00;;;;;;;2.70;1.95;;;6.50;56.10;;;;;;5014023;28;20204;-80
2021/04/26 03:42:26;;;;;;;4.10;2.20;;;6.50;56.30;;;;;;5031360;28;20162;-80
2021/04/26 03:44:53;;;;;;;3.08;2.20;;;6.50;56.50;;;;;;5047724;28;20178;-81
2021/04/26 03:47:48;;;;;;;2.67;1.55;;;6.50;56.70;;;;;;4990429;28;20323;-82
2021/04/26 03:50:37;;;;;;;3.90;2.20;;;6.50;56.60;;;;;;5047057;28;20688;-81
2021/04/26 03:53:22;;;;;;;3.38;1.55;;;6.50;56.60;;;;;;5031998;28;20180;-81
2021/04/26 03:56:04;;;;;;;2.35;2.15;;;6.50;56.70;;;;;;5014989;28;20170;-81
2021/04/26 03:58:30;;;;;;;5.07;2.65;;;6.50;57.00;;;;;;5049700;28;20182;-81
2021/04/26 04:00:57;;;;;;;4.20;2.40;;;6.50;57.90;;;;;;5014847;28;20170;-82
2021/04/26 04:03:22;;;;;;;2.93;2.10;;;6.50;58.60;;;;;;5014438;28;20173;-81
2021/04/26 04:05:51;;;;;;;3.00;2.13;;;6.50;58.90;;;;;;5014359;28;20568;-82
2021/04/26 04:08:56;;;;;;;2.30;1.30;;;6.50;59.10;;;;;;5053838;22;20238;-76
2021/04/26 04:11:41;;;;;;;3.95;2.42;;;6.60;59.10;;;;;;5031739;28;20165;-75
2021/04/26 04:14:06;;;;;;;3.40;2.40;;;6.60;58.90;;;;;;5031715;28;20305;-76
2021/04/26 04:16:33;;;;;;;3.00;2.15;;;6.60;59.20;;;;;;5030382;28;20174;-75
2021/04/26 04:18:59;;;;;;;2.83;2.17;;;6.60;59.40;;;;;;5044966;28;20209;-74
2021/04/26 04:21:28;;;;;;;3.65;2.20;;;6.60;59.50;;;;;;5030377;28;20268;-75
2021/04/26 04:23:55;;;;;;;2.58;2.10;;;6.60;60.00;;;;;;5029693;28;20166;-76
2021/04/26 04:26:21;;;;;;;6.67;2.40;;;6.60;60.40;;;;;;4994293;28;20188;-75
2021/04/26 04:28:55;;;;;;;2.88;2.42;;;6.60;60.70;;;;;;5010573;28;20652;-75
2021/04/26 04:31:42;;;;;;;3.65;2.10;;;6.60;60.80;;;;;;5010895;28;20237;-76
2021/04/26 04:34:26;;;;;;;3.40;2.03;;;6.70;60.80;;;;;;5011937;28;20169;-75
2021/04/26 04:37:25;;;;;;;3.88;1.92;;;6.70;61.20;;;;;;4988789;28;20195;-76
2021/04/26 04:40:29;;;;;;;4.50;1.70;;;6.70;61.40;;;;;;4975008;28;20251;-74
2021/04/26 04:43:11;;;;;;;6.13;1.65;;;6.70;61.30;;;;;;4970632;28;20217;-75
2021/04/26 04:45:50;;;;;;;5.35;1.80;;;6.80;61.90;;;;;;4990464;28;20657;-76
2021/04/26 04:48:39;;;;;;;3.70;2.28;;;6.80;62.00;;;;;;5010349;28;20592;-75
2021/04/26 04:51:08;;;;;;;2.65;1.55;;;6.90;61.90;;;;;;5011016;28;20511;-76
2021/04/26 04:53:35;;;;;;;5.35;2.30;;;6.90;61.90;;;;;;5013984;28;20588;-75
2021/04/26 04:56:01;;;;;;;4.57;2.03;;;6.90;62.40;;;;;;5014356;28;20220;-76
2021/04/26 04:58:40;;;;;;;2.90;2.60;;;6.90;62.50;;;;;;5022170;28;20293;-76
2021/04/26 05:01:07;;;;;;;3.05;2.00;;;6.90;62.40;;;;;;5025812;28;20209;-76
2021/04/26 05:03:51;;;;;;;4.35;2.42;;;6.90;62.10;;;;;;5033469;28;20177;-76
2021/04/26 05:06:49;;;;;;;3.25;1.70;;;6.90;61.80;;;;;;5008446;28;20566;-76
2021/04/26 05:09:33;;;;;;;2.60;2.30;;;7.00;62.00;;;;;;5034874;28;20304;-74
2021/04/26 05:12:18;;;;;;;3.30;2.30;;;7.00;62.00;;;;;;5020158;28;20276;-75
2021/04/26 05:15:03;;;;;;;3.55;1.77;;;7.00;62.10;;;;;;5017453;28;20185;-76
2021/04/26 05:17:31;;;;;;;2.90;2.08;;;7.00;62.20;;;;;;5021154;28;20637;-75
2021/04/26 05:19:58;;;;;;;6.80;2.22;;;7.10;63.20;;;;;;5017282;28;20272;-75
2021/04/26 05:22:23;;;;;;;4.80;2.25;;;7.10;62.90;;;;;;5034972;28;20197;-75
2021/04/26 05:24:58;;;;;;;2.85;1.50;;;7.20;63.00;;;;;;5033844;28;20169;-75
2021/04/26 05:27:24;;;;;;;4.20;2.40;;;7.20;62.50;;;;;;5034869;28;20245;-76
2021/04/26 05:29:51;;;;;;;3.15;1.83;;;7.30;63.00;;;;;;5033581;28;20639;-76
2021/04/26 05:32:19;;;;;;;3.22;1.60;;;7.40;63.80;;;;;;5033749;28;20212;-75
2021/04/26 05:34:47;;;;;;;4.47;1.98;;;7.40;63.10;;;;;;5033573;28;20178;-75
2021/04/26 05:37:13;;;;;;;3.77;2.43;;;7.50;62.70;;;;;;5034635;28;20166;-77
2021/04/26 05:39:38;;;;;;;3.50;2.20;;;7.60;62.90;;;;;;5016869;28;20600;-75
2021/04/26 05:42:04;;;;;;;2.70;1.67;;;7.60;62.90;;;;;;5034652;28;20568;-75
2021/04/26 05:44:31;;;;;;;3.33;1.52;;;7.70;62.70;;;;;;5016855;28;20201;-76
2021/04/26 05:47:25;;;;;;;3.00;1.38;;;7.80;63.00;;;;;;5000282;28;20165;-76
2021/04/26 05:49:51;;;;;;;3.30;1.97;;;7.90;63.50;;;;;;5034419;28;20673;-76
2021/04/26 05:52:17;;;;;;;3.33;1.53;;;8.00;61.70;;;;;;5033318;28;20213;-74
2021/04/26 05:54:45;;;;;;;4.40;2.47;;;8.00;61.10;;;;;;5020575;28;20174;-74
2021/04/26 05:57:11;;;;;;;2.28;1.80;;;8.10;61.00;;;;;;5016922;28;20584;-73
2021/04/26 05:59:37;;;;;;;3.33;1.50;;;8.20;61.20;;;;;;5016351;28;20730;-74
2021/04/26 06:02:03;;;;;;;2.87;1.50;;;8.40;61.30;;;;;;5033829;28;20572;-75
2021/04/26 06:04:29;;;;;;;2.63;1.33;;;8.50;61.10;;;;;;4998868;28;20591;-73
2021/04/26 06:06:55;;;;;;;3.10;1.70;;;8.50;60.70;;;;;;5014456;28;20174;-74
2021/04/26 06:09:20;;;;;;;2.90;1.50;;;8.70;60.10;;;;;;5008468;28;20214;-74
2021/04/26 06:11:46;;;;;;;2.37;1.67;;;8.80;60.00;;;;;;5013008;28;20936;-74
2021/04/26 06:14:12;;;;;;;3.33;1.30;;;8.90;59.90;;;;;;5022885;28;20182;-74
2021/04/26 06:16:40;;;;;;;4.37;1.63;;;9.00;59.70;;;;;;5029659;28;20159;-75
2021/04/26 06:19:06;;;;;;;3.90;2.03;;;9.20;59.50;;;;;;5013715;28;20546;-74
2021/04/26 06:21:32;;;;;;;2.00;1.80;;;9.30;59.20;;;;;;5022897;28;20173;-75
2021/04/26 06:23:58;;;;;;;2.30;1.30;;;9.60;59.10;;;;;;5033816;28;20576;-75
2021/04/26 06:26:24;;;;;;;2.58;1.30;;;10.20;59.60;;;;;;5048447;28;20660;-74
2021/04/26 06:28:50;;;;;;;3.90;1.70;;;11.20;62.00;;;;;;5030985;28;21094;-75
2021/04/26 06:31:16;;;;;;;5.93;1.27;;;12.80;56.70;;;;;;5032982;28;20174;-75
2021/04/26 06:33:44;;;;;;;2.07;1.30;;;13.60;58.00;;;;;;5036539;28;20252;-75
2021/04/26 06:36:10;;;;;;;2.60;1.23;;;14.60;58.40;;;;;;5034817;28;20201;-74
2021/04/26 06:38:36;;;;;;;3.53;1.30;;;15.70;55.40;;;;;;5032876;28;20788;-74
2021/04/26 06:41:02;;;;;;;3.60;1.80;;;16.80;54.20;;;;;;5016899;28;20726;-74
2021/04/26 06:43:32;;;;;;;3.90;1.30;;;17.90;51.30;;;;;;5033243;28;20745;-74
2021/04/26 06:46:00;;;;;;;3.10;1.03;;;19.00;49.90;;;;;;5033761;28;20585;-75
2021/04/26 06:48:26;;;;;;;1.70;1.10;;;19.60;50.90;;;;;;5033570;28;20604;-74
2021/04/26 06:50:54;;;;;;;2.90;1.20;;;20.30;51.00;;;;;;5032545;28;20588;-75
2021/04/26 06:53:20;;;;;;;2.37;0.90;;;21.10;50.20;;;;;;5032368;28;20568;-74
2021/04/26 06:55:48;;;;;;;2.10;1.70;;;21.80;50.20;;;;;;5032311;28;20611;-74
2021/04/26 06:58:13;;;;;;;3.43;0.97;;;22.40;50.20;;;;;;5048620;28;20189;-74
2021/04/26 07:00:39;;;;;;;2.37;0.93;;;23.20;49.90;;;;;;5033080;28;20582;-73
2021/04/26 07:03:05;;;;;;;2.60;1.00;;;23.80;48.60;;;;;;5033143;28;20185;-74
2021/04/26 07:05:31;;;;;;;1.80;1.00;;;24.00;46.60;;;;;;5042450;28;20596;-73
2021/04/26 07:07:57;;;;;;;3.27;1.00;;;24.20;46.40;;;;;;5032922;28;20627;-73
2021/04/26 07:10:23;;;;;;;3.70;1.10;;;24.70;46.70;;;;;;5015281;28;20624;-73
2021/04/26 07:12:48;;;;;;;2.53;1.00;;;25.30;44.10;;;;;;5014942;28;20512;-72
2021/04/26 07:15:15;;;;;;;2.50;0.93;;;25.70;45.30;;;;;;4998760;28;20181;-74
2021/04/26 07:17:43;;;;;;;2.00;0.90;;;26.10;43.80;;;;;;5031195;28;20908;-74
2021/04/26 07:20:13;;;;;;;2.33;1.10;;;26.60;44.70;;;;;;5031265;28;20606;-72
2021/04/26 07:22:39;;;;;;;2.00;0.90;;;27.10;43.00;;;;;;5032333;28;20601;-73
2021/04/26 07:25:14;;;;;;;3.60;0.93;;;27.30;41.10;;;;;;5030967;28;20636;-73
2021/04/26 07:27:40;;;;;;;2.80;0.70;;;27.70;41.50;;;;;;5022379;28;20611;-74
2021/04/26 07:30:08;;;;;;;2.07;0.87;;;28.10;40.20;;;;;;5033549;28;21630;-75
2021/04/26 07:32:35;;;;;;;1.80;0.90;;;28.00;38.30;;;;;;5033922;28;20561;-74
2021/04/26 07:35:00;;;;;;;2.13;0.87;;;28.00;35.80;;;;;;5018482;28;20568;-73
2021/04/26 07:37:27;;;;;;;2.10;0.70;;;27.70;35.90;;;;;;5016538;28;21191;-74
2021/04/26 07:39:53;;;;;;;2.00;0.83;;;27.50;35.80;;;;;;5032784;28;20603;-75
2021/04/26 07:42:22;;;;;;;2.23;0.70;;;27.50;36.40;;;;;;5033720;28;20668;-73
2021/04/26 07:44:48;;;;;;;2.70;1.30;;;27.70;36.10;;;;;;5035206;28;21118;-74
2021/04/26 07:47:14;;;;;;;2.53;1.00;;;27.20;31.30;;;;;;5035680;28;20172;-75
2021/04/26 07:49:40;;;;;;;2.13;0.80;;;27.00;33.40;;;;;;5034999;28;20319;-74
2021/04/26 07:52:06;;;;;;;1.33;0.70;;;26.90;34.40;;;;;;5036447;28;20173;-74
2021/04/26 07:54:31;;;;;;;3.53;0.90;;;27.30;35.00;;;;;;5035601;28;20905;-74
2021/04/26 07:56:59;;;;;;;1.20;0.67;;;27.60;34.20;;;;;;5016737;28;20201;-75
2021/04/26 07:59:27;;;;;;;3.80;0.67;;;27.80;34.70;;;;;;5018246;28;20206;-75
2021/04/26 08:01:53;;;;;;;3.57;0.73;;;27.90;33.90;;;;;;5047518;28;20909;-75
2021/04/26 08:04:21;;;;;;;1.30;0.63;;;27.90;33.80;;;;;;5046931;28;20205;-74
2021/04/26 08:06:48;;;;;;;1.52;0.80;;;28.00;31.50;;;;;;5013291;28;20718;-75
2021/04/26 08:09:14;;;;;;;3.20;0.80;;;27.80;29.50;;;;;;5042558;28;20213;-74
2021/04/26 08:11:40;;;;;;;1.40;0.60;;;28.40;32.30;;;;;;5045916;28;20169;-75
2021/04/26 08:14:05;;;;;;;3.57;0.60;;;28.40;30.80;;;;;;5011679;28;20173;-74
2021/04/26 08:16:31;;;;;;;1.10;0.60;;;28.20;30.20;;;;;;5011223;28;20154;-75
2021/04/26 08:18:57;;;;;;;4.50;0.70;;;28.10;30.90;;;;;;5009052;28;20765;-75
2021/04/26 08:21:23;;;;;;;3.20;0.60;;;28.00;30.20;;;;;;4993673;28;20261;-75
2021/04/26 08:23:57;;;;;;;3.20;0.60;;;27.60;29.70;;;;;;4993681;28;20190;-76
2021/04/26 08:26:26;;;;;;;1.10;0.57;;;27.40;28.90;;;;;;5010303;28;20565;-75
2021/04/26 08:28:52;;;;;;;4.43;1.20;;;27.20;28.40;;;;;;5011912;28;20626;-76
2021/04/26 08:31:20;;;;;;;2.43;0.80;;;27.20;29.50;;;;;;5030678;28;20619;-74
2021/04/26 08:33:46;;;;;;;1.30;0.63;;;27.30;29.70;;;;;;5031190;28;20588;-76
2021/04/26 08:36:12;;;;;;;2.17;0.70;;;27.60;30.40;;;;;;5028474;28;21113;-75
2021/04/26 08:38:39;;;;;;;1.57;0.80;;;27.60;28.50;;;;;;5011356;28;20194;-74
2021/04/26 08:41:06;;;;;;;2.53;0.70;;;27.70;28.70;;;;;;5011728;28;20619;-74
2021/04/26 08:43:32;;;;;;;4.03;0.70;;;27.90;29.30;;;;;;5010177;28;20612;-74
2021/04/26 08:45:59;;;;;;;1.83;0.70;;;28.30;29.50;;;;;;5011289;28;20585;-74
2021/04/26 08:48:27;;;;;;;2.17;0.70;;;28.60;30.20;;;;;;5010532;28;20677;-74
2021/04/26 08:50:53;;;;;;;3.43;0.70;;;28.80;29.30;;;;;;5010507;28;20577;-74
2021/04/26 08:53:19;;;;;;;1.60;0.77;;;29.10;29.60;;;;;;5010439;28;20573;-75
2021/04/26 08:55:45;;;;;;;1.20;0.60;;;29.10;29.10;;;;;;5011438;28;20597;-75
2021/04/26 08:58:13;;;;;;;1.47;1.00;;;29.00;29.10;;;;;;5010190;28;20197;-76
2021/04/26 09:00:39;;;;;;;1.73;0.60;;;29.20;28.20;;;;;;5011193;28;20629;-73
2021/04/26 09:03:07;;;;;;;1.40;0.60;;;29.30;28.70;;;;;;5010372;28;20171;-74
2021/04/26 09:05:40;;;;;;;2.70;0.77;;;29.40;28.40;;;;;;5011556;28;20177;-74
2021/04/26 09:08:12;;;;;;;1.60;0.70;;;29.50;27.70;;;;;;5013027;28;20668;-75
2021/04/26 09:10:50;;;;;;;1.97;0.60;;;29.30;27.30;;;;;;5014733;28;21143;-75
2021/04/26 09:13:28;;;;;;;1.20;0.60;;;29.30;28.40;;;;;;5015932;28;20739;-74
2021/04/26 09:15:56;;;;;;;2.70;0.70;;;29.40;27.40;;;;;;5017147;28;21132;-74
2021/04/26 09:18:45;;;;;;;1.40;0.70;;;29.50;26.90;;;;;;5018098;28;20601;-74
2021/04/26 09:21:18;;;;;;;1.57;0.90;;;29.30;27.00;;;;;;4985997;28;21187;-75
2021/04/26 09:23:49;;;;;;;1.20;0.60;;;29.30;27.20;;;;;;5016918;28;20562;-75
2021/04/26 09:26:27;;;;;;;1.83;0.70;;;29.50;27.90;;;;;;5019022;28;20569;-75
2021/04/26 09:29:18;;;;;;;1.93;0.70;;;29.50;26.20;;;;;;4984339;28;20596;-75
2021/04/26 09:32:02;;;;;;;2.00;0.73;;;29.40;27.00;;;;;;5020744;28;20575;-76
2021/04/26 09:34:50;;;;;;;2.13;0.60;;;29.60;27.10;;;;;;5001179;28;20593;-75
2021/04/26 09:37:20;;;;;;;1.33;0.60;;;29.80;27.70;;;;;;5002954;28;20576;-75
2021/04/26 09:40:01;;;;;;;2.30;0.50;;;30.20;27.70;;;;;;4984042;28;20740;-74
2021/04/26 09:42:52;;;;;;;1.40;0.70;;;30.50;27.10;;;;;;5021118;28;20723;-75
2021/04/26 09:45:21;;;;;;;1.93;0.60;;;30.50;26.20;;;;;;5001614;28;20582;-75
2021/04/26 09:47:51;;;;;;;2.67;0.73;;;30.80;26.70;;;;;;4984280;28;20605;-75
2021/04/26 09:50:17;;;;;;;1.10;0.50;;;30.90;25.90;;;;;;5001177;28;20680;-75
2021/04/26 09:52:46;;;;;;;1.90;0.70;;;30.80;26.50;;;;;;4998014;28;20576;-75
2021/04/26 09:55:30;;;;;;;1.57;0.70;;;31.10;26.70;;;;;;5016702;28;20608;-75
2021/04/26 09:58:27;;;;;;;2.63;0.60;;;31.50;26.30;;;;;;5019512;28;20624;-75
2021/04/26 10:01:00;;;;;;;1.40;0.70;;;31.90;26.60;;;;;;5021076;28;20656;-79
2021/04/26 10:03:27;;;;;;;1.27;0.63;;;31.90;26.50;;;;;;5022567;28;21150;-79
2021/04/26 10:05:52;;;;;;;1.47;0.60;;;31.50;25.40;;;;;;5033684;28;20607;-79
2021/04/26 10:08:18;;;;;;;1.67;0.80;;;31.00;25.90;;;;;;5040601;23;21362;-77
2021/04/26 10:10:46;;;;;;;1.47;0.67;;;30.90;26.00;;;;;;5032568;28;20189;-79
2021/04/26 10:13:12;;;;;;;1.30;0.80;;;31.00;25.80;;;;;;5027489;28;20641;-79
2021/04/26 10:15:38;;;;;;;2.13;0.70;;;31.10;25.90;;;;;;4996320;28;20573;-78
2021/04/26 10:18:10;;;;;;;2.13;0.60;;;31.20;26.10;;;;;;5026444;28;20594;-78
2021/04/26 10:20:40;;;;;;;1.30;0.50;;;31.50;25.90;;;;;;5033798;28;20618;-78
2021/04/26 10:23:35;;;;;;;2.90;0.80;;;31.70;26.00;;;;;;5016256;28;20576;-78
2021/04/26 10:26:01;;;;;;;1.43;0.70;;;31.70;25.90;;;;;;5016683;28;20630;-77
2021/04/26 10:28:33;;;;;;;1.53;0.67;;;31.50;24.90;;;;;;4999869;28;20604;-77
2021/04/26 10:31:13;;;;;;;1.83;0.67;;;30.90;24.90;;;;;;5032873;28;20717;-77
2021/04/26 10:33:59;;;;;;;1.20;0.60;;;30.60;24.70;;;;;;5034462;28;20571;-78
2021/04/26 10:36:54;;;;;;;2.53;0.77;;;30.30;24.60;;;;;;5022888;28;20578;-78
2021/04/26 10:39:27;;;;;;;1.30;0.70;;;30.00;24.90;;;;;;4957217;28;20644;-77
2021/04/26 10:41:59;;;;;;;1.40;0.70;;;29.80;25.50;;;;;;4994455;28;20586;-77
2021/04/26 10:44:50;;;;;;;1.63;0.70;;;29.80;25.00;;;;;;4999302;28;20605;-78
2021/04/26 10:47:23;;;;;;;1.87;0.70;;;29.60;24.30;;;;;;5009634;28;20617;-78
2021/04/26 10:50:01;;;;;;;2.40;0.80;;;29.30;24.90;;;;;;5016224;28;20617;-78
2021/04/26 10:52:27;;;;;;;1.87;0.70;;;29.10;25.00;;;;;;4999232;28;20562;-79
2021/04/26 10:54:58;;;;;;;1.57;0.80;;;28.90;24.60;;;;;;5014433;28;20598;-78
2021/04/26 10:57:41;;;;;;;3.10;1.50;;;28.60;24.50;;;;;;5014184;28;20578;-78
2021/04/26 11:00:23;;;;;;;1.40;0.70;;;28.40;24.90;;;;;;4987175;28;20641;-78
2021/04/26 11:02:53;;;;;;;1.77;0.70;;;28.00;24.40;;;;;;4983996;28;20586;-78
2021/04/26 11:05:23;;;;;;;1.70;0.70;;;27.60;24.90;;;;;;4982210;28;20597;-78
2021/04/26 11:07:53;;;;;;;2.60;0.70;;;27.60;25.00;;;;;;4980593;28;20578;-78
2021/04/26 11:10:30;;;;;;;1.60;0.80;;;27.60;25.50;;;;;;5001880;28;20721;-78
2021/04/26 11:12:58;;;;;;;1.80;0.80;;;27.60;24.70;;;;;;5007415;28;20593;-78
2021/04/26 11:15:25;;;;;;;2.03;0.73;;;27.70;24.70;;;;;;5014611;28;20613;-78
2021/04/26 11:17:52;;;;;;;1.23;0.60;;;27.60;24.90;;;;;;5013271;28;20658;-79
2021/04/26 11:20:23;;;;;;;1.70;0.70;;;27.70;25.00;;;;;;4993053;28;20629;-77
2021/04/26 11:22:56;;;;;;;1.77;0.90;;;27.60;24.80;;;;;;5001380;28;20726;-77
2021/04/26 11:25:34;;;;;;;2.15;0.88;;;27.20;23.80;;;;;;4997059;28;21049;-77
2021/04/26 11:28:00;;;;;;;2.80;0.80;;;26.50;23.70;;;;;;4981597;28;20202;-77
2021/04/26 11:30:50;;;;;;;1.30;0.70;;;26.40;24.40;;;;;;5008588;28;20600;-77
2021/04/26 11:33:18;;;;;;;2.00;0.80;;;26.50;25.00;;;;;;4990994;28;20765;-77
2021/04/26 11:36:12;;;;;;;3.30;0.67;;;26.70;25.10;;;;;;5005158;28;20578;-78
2021/04/26 11:38:39;;;;;;;2.10;0.90;;;26.80;25.30;;;;;;5014697;28;20740;-78
2021/04/26 11:41:08;;;;;;;2.20;0.70;;;26.80;24.60;;;;;;5015518;28;20573;-78
2021/04/26 11:43:45;;;;;;;2.30;0.70;;;26.90;25.00;;;;;;4996507;28;20577;-79
2021/04/26 11:46:11;;;;;;;1.23;0.83;;;26.80;25.60;;;;;;4998493;28;20653;-79
2021/04/26 11:48:37;;;;;;;1.63;0.80;;;26.90;25.40;;;;;;4978264;28;20625;-79
2021/04/26 11:51:04;;;;;;;2.93;0.67;;;26.90;25.30;;;;;;4997130;28;20630;-78
2021/04/26 11:53:32;;;;;;;1.70;0.60;;;26.60;24.80;;;;;;4984497;28;20945;-78
2021/04/26 11:56:12;;;;;;;1.40;0.60;;;26.50;25.10;;;;;;4999732;28;20614;-79
2021/04/26 11:58:42;;;;;;;1.20;0.60;;;26.40;25.10;;;;;;4982283;28;20605;-78
2021/04/26 12:01:10;;;;;;;2.07;0.70;;;26.30;25.00;;;;;;5001945;28;20642;-78
2021/04/26 12:03:56;;;;;;;1.20;0.70;;;26.10;25.10;;;;;;4990880;28;20581;-78
2021/04/26 12:06:22;;;;;;;1.87;0.80;;;26.00;25.70;;;;;;4986166;28;20582;-78
2021/04/26 12:08:48;;;;;;;1.20;0.63;;;25.90;25.30;;;;;;5005175;28;20605;-77
2021/04/26 12:11:20;;;;;;;2.35;0.80;;;25.70;25.20;;;;;;5004186;28;20721;-77
2021/04/26 12:14:08;;;;;;;3.60;0.70;;;25.50;24.90;;;;;;5004305;28;20167;-77
2021/04/26 12:16:34;;;;;;;1.37;0.73;;;25.30;25.20;;;;;;4994789;28;20606;-77
2021/04/26 12:19:02;;;;;;;1.50;0.70;;;25.30;25.80;;;;;;4994714;28;20626;-78
2021/04/26 12:21:28;;;;;;;2.17;0.90;;;25.20;25.30;;;;;;5010301;28;20223;-78
2021/04/26 12:23:55;;;;;;;2.23;0.73;;;25.10;25.60;;;;;;5009645;28;20645;-78
2021/04/26 12:26:21;;;;;;;1.20;0.60;;;25.10;25.70;;;;;;5010656;28;20650;-79
2021/04/26 12:28:49;;;;;;;1.30;0.60;;;24.80;25.10;;;;;;5008654;28;20614;-79
2021/04/26 12:31:24;;;;;;;1.60;0.80;;;24.50;25.00;;;;;;5007606;28;20622;-80
2021/04/26 12:34:05;;;;;;;1.87;0.60;;;24.30;25.30;;;;;;5002619;28;20578;-80
2021/04/26 12:36:37;;;;;;;2.23;0.80;;;24.10;25.50;;;;;;5007413;28;20582;-80
2021/04/26 12:39:03;;;;;;;3.43;0.80;;;24.00;25.50;;;;;;4969147;28;20681;-79
2021/04/26 12:41:39;;;;;;;1.83;0.70;;;23.80;25.50;;;;;;4997923;28;20558;-79
2021/04/26 12:44:09;;;;;;;1.20;0.67;;;23.60;25.30;;;;;;5005742;28;20609;-80
2021/04/26 12:46:40;;;;;;;1.50;0.70;;;23.40;25.10;;;;;;5013550;28;20608;-79
2021/04/26 12:49:19;;;;;;;2.23;0.90;;;23.20;25.10;;;;;;5018378;28;21027;-79
2021/04/26 12:51:45;;;;;;;1.20;0.70;;;22.90;25.00;;;;;;5041406;28;20648;-79
2021/04/26 12:54:11;;;;;;;1.30;0.70;;;22.60;25.00;;;;;;5016376;28;21085;-79
2021/04/26 12:56:37;;;;;;;1.30;0.70;;;22.20;24.70;;;;;;5015988;28;20174;-79
2021/04/26 12:59:05;;;;;;;3.67;0.70;;;21.70;24.50;;;;;;5045062;28;20636;-79
2021/04/26 13:01:31;;;;;;;1.77;0.77;;;21.30;24.50;;;;;;5029373;28;20587;-79
2021/04/26 13:04:00;;;;;;;2.40;0.80;;;20.90;24.50;;;;;;5028236;28;20581;-80
2021/04/26 13:06:32;;;;;;;4.47;1.00;;;20.40;25.20;;;;;;5031916;28;20180;-80
2021/04/26 13:09:06;;;;;;;1.70;0.90;;;20.10;25.20;;;;;;5047622;28;20615;-80
2021/04/26 13:11:33;;;;;;;2.13;0.80;;;19.80;25.20;;;;;;5046476;28;20576;-80
2021/04/26 13:14:03;;;;;;;2.03;0.90;;;19.50;25.30;;;;;;5031833;28;20663;-80